Time;durP1;ratioP1;P1;durP2;ratioP2;P2;SDS_P1;SDS_P2;PMS_P1;PMS_P2;Temp;Humidity;BMP_temperature;BMP_pressure;BME280_temperature;BME280_humidity;BME280_pressure;Samples;Min_cycle;Max_cycle;Signal;HPM_P1;HPM_P2
2024/03/07 00:01:20;;;;;;;74.13;34.10;;;;;;;;;;5052505;28;20291;-72
2024/03/07 00:03:46;;;;;;;76.80;33.60;;;;;;;;;;5068918;28;20204;-72
2024/03/07 00:06:11;;;;;;;75.90;35.20;;;;;;;;;;5060273;28;20182;-72
2024/03/07 00:08:37;;;;;;;80.13;35.07;;;;;;;;;;5058344;28;20177;-72
2024/03/07 00:11:02;;;;;;;80.90;35.07;;;;;;;;;;5066545;28;20204;-72
2024/03/07 00:13:27;;;;;;;73.77;34.40;;;;;;;;;;5062927;28;20182;-72
2024/03/07 00:15:53;;;;;;;72.67;33.00;;;;;;;;;;5069197;28;20189;-71
2024/03/07 00:18:19;;;;;;;75.40;34.17;;;;;;;;;;5066584;28;20237;-71
2024/03/07 00:20:44;;;;;;;78.10;34.93;;;;;;;;;;5067138;28;20284;-72
2024/03/07 00:23:10;;;;;;;67.70;33.40;;;;;;;;;;5068934;28;20255;-72
2024/03/07 00:25:35;;;;;;;78.90;34.53;;;;;;;;;;5081410;28;20589;-72
2024/03/07 00:28:04;;;;;;;76.93;32.13;;;;;;;;;;5065119;28;20288;-72
2024/03/07 00:30:29;;;;;;;69.40;32.57;;;;;;;;;;5066786;28;20189;-72
2024/03/07 00:32:55;;;;;;;75.90;32.33;;;;;;;;;;5056265;28;20189;-72
2024/03/07 00:35:22;;;;;;;72.60;32.30;;;;;;;;;;5064971;28;20582;-72
2024/03/07 00:37:47;;;;;;;67.27;32.00;;;;;;;;;;5062653;28;20178;-72
2024/03/07 00:40:13;;;;;;;70.80;32.33;;;;;;;;;;5071436;28;20196;-72
2024/03/07 00:42:38;;;;;;;71.77;32.87;;;;;;;;;;5067343;28;20262;-72
2024/03/07 00:45:05;;;;;;;68.23;31.43;;;;;;;;;;5050412;28;20192;-72
2024/03/07 00:47:31;;;;;;;78.83;33.20;;;;;;;;;;5066081;28;20532;-72
2024/03/07 00:49:57;;;;;;;70.63;31.73;;;;;;;;;;5067941;28;20200;-72
2024/03/07 00:52:23;;;;;;;72.17;32.70;;;;;;;;;;5064926;28;20267;-72
2024/03/07 00:54:49;;;;;;;70.93;31.60;;;;;;;;;;5069543;28;20202;-71
2024/03/07 00:57:15;;;;;;;73.03;32.43;;;;;;;;;;5069039;28;20189;-71
2024/03/07 00:59:40;;;;;;;68.67;31.47;;;;;;;;;;5065874;28;20189;-71
2024/03/07 01:02:06;;;;;;;79.77;33.83;;;;;;;;;;5061711;28;20212;-71
2024/03/07 01:04:33;;;;;;;72.63;32.60;;;;;;;;;;5043401;28;20378;-71
2024/03/07 01:06:59;;;;;;;74.07;32.37;;;;;;;;;;5070430;28;20528;-71
2024/03/07 01:09:25;;;;;;;68.30;33.10;;;;;;;;;;5074301;28;20199;-72
2024/03/07 01:11:51;;;;;;;72.27;32.97;;;;;;;;;;5068332;28;20200;-71
2024/03/07 01:14:16;;;;;;;70.77;32.90;;;;;;;;;;5058930;28;20186;-71
2024/03/07 01:16:42;;;;;;;82.53;36.17;;;;;;;;;;5069192;28;20561;-72
2024/03/07 01:19:08;;;;;;;77.93;34.17;;;;;;;;;;5064203;28;20564;-72
2024/03/07 01:21:34;;;;;;;77.03;34.50;;;;;;;;;;5070454;28;20189;-72
2024/03/07 01:24:00;;;;;;;76.40;33.83;;;;;;;;;;5069403;28;20184;-71
2024/03/07 01:26:28;;;;;;;79.03;34.40;;;;;;;;;;5068999;28;20522;-71
2024/03/07 01:28:54;;;;;;;72.23;34.40;;;;;;;;;;5061874;28;20274;-72
2024/03/07 01:31:22;;;;;;;77.83;34.80;;;;;;;;;;5062903;28;20193;-72
2024/03/07 01:33:47;;;;;;;81.90;35.83;;;;;;;;;;5061492;28;20535;-72
2024/03/07 01:36:12;;;;;;;78.93;33.07;;;;;;;;;;5060064;28;20271;-72
2024/03/07 01:38:38;;;;;;;93.43;37.70;;;;;;;;;;5063405;28;20230;-73
2024/03/07 01:41:04;;;;;;;82.20;37.07;;;;;;;;;;5065841;28;20193;-73
2024/03/07 01:43:31;;;;;;;89.97;38.57;;;;;;;;;;5063746;28;20217;-73
2024/03/07 01:45:58;;;;;;;87.37;37.80;;;;;;;;;;5051998;28;20271;-73
2024/03/07 01:48:31;;;;;;;92.10;38.57;;;;;;;;;;5063145;28;20188;-72
2024/03/07 01:50:58;;;;;;;87.90;37.33;;;;;;;;;;5067969;28;20224;-72
2024/03/07 01:53:25;;;;;;;85.47;37.77;;;;;;;;;;5065401;28;20227;-72
2024/03/07 01:55:53;;;;;;;90.47;38.17;;;;;;;;;;5060556;28;20544;-72
2024/03/07 01:58:20;;;;;;;92.47;38.23;;;;;;;;;;5065655;28;20189;-72
2024/03/07 02:00:46;;;;;;;87.40;38.97;;;;;;;;;;5066188;28;20201;-72
2024/03/07 02:03:13;;;;;;;88.90;37.80;;;;;;;;;;5059429;28;20756;-72
2024/03/07 02:05:39;;;;;;;83.60;38.23;;;;;;;;;;5069265;28;20254;-72
2024/03/07 02:08:05;;;;;;;88.97;37.27;;;;;;;;;;5062699;28;20653;-72
2024/03/07 02:10:30;;;;;;;88.57;38.67;;;;;;;;;;5062456;28;20195;-73
2024/03/07 02:12:55;;;;;;;88.07;37.43;;;;;;;;;;5065693;28;20219;-73
2024/03/07 02:15:21;;;;;;;79.83;37.43;;;;;;;;;;5068748;28;20208;-72
2024/03/07 02:17:46;;;;;;;83.40;37.23;;;;;;;;;;5069628;28;20271;-72
2024/03/07 02:20:13;;;;;;;88.80;38.23;;;;;;;;;;5069289;28;20576;-72
2024/03/07 02:22:38;;;;;;;82.43;38.33;;;;;;;;;;5071271;28;20205;-72
2024/03/07 02:25:04;;;;;;;83.60;37.80;;;;;;;;;;5069049;28;20372;-72
2024/03/07 02:27:30;;;;;;;86.23;36.80;;;;;;;;;;5067327;28;20639;-72
2024/03/07 02:29:55;;;;;;;86.23;37.23;;;;;;;;;;5068979;28;20189;-72
2024/03/07 02:32:21;;;;;;;82.93;37.87;;;;;;;;;;5068838;28;20181;-72
2024/03/07 02:34:47;;;;;;;84.70;37.00;;;;;;;;;;5049719;28;20233;-72
2024/03/07 02:37:12;;;;;;;85.43;37.27;;;;;;;;;;5047456;28;20189;-72
2024/03/07 02:39:38;;;;;;;80.23;36.60;;;;;;;;;;5061085;28;20196;-71
2024/03/07 02:42:04;;;;;;;82.33;36.80;;;;;;;;;;5078747;28;20267;-72
2024/03/07 02:44:31;;;;;;;74.10;35.07;;;;;;;;;;5066866;28;20184;-72
2024/03/07 02:46:57;;;;;;;78.67;36.43;;;;;;;;;;5080430;28;20188;-72
2024/03/07 02:49:22;;;;;;;75.47;35.47;;;;;;;;;;5069161;28;20246;-72
2024/03/07 02:51:48;;;;;;;77.70;34.07;;;;;;;;;;5048510;28;20196;-72
2024/03/07 02:54:13;;;;;;;79.17;35.83;;;;;;;;;;5067858;28;20231;-72
2024/03/07 02:56:39;;;;;;;75.80;34.37;;;;;;;;;;5066380;28;20189;-72
2024/03/07 02:59:04;;;;;;;71.27;33.50;;;;;;;;;;5052528;28;20196;-72
2024/03/07 03:01:29;;;;;;;67.95;33.50;;;;;;;;;;5063287;28;20243;-72
2024/03/07 03:03:55;;;;;;;68.63;33.93;;;;;;;;;;5061170;28;20193;-72
2024/03/07 03:06:20;;;;;;;71.60;33.63;;;;;;;;;;5071539;28;20275;-72
2024/03/07 03:08:47;;;;;;;74.10;33.50;;;;;;;;;;5056625;28;20246;-72
2024/03/07 03:11:13;;;;;;;69.20;32.87;;;;;;;;;;5064329;28;20185;-72
2024/03/07 03:13:39;;;;;;;66.57;32.63;;;;;;;;;;5064402;28;20499;-72
2024/03/07 03:16:07;;;;;;;64.53;32.30;;;;;;;;;;5070418;28;20189;-72
2024/03/07 03:18:33;;;;;;;74.43;32.97;;;;;;;;;;5063500;28;20204;-73
2024/03/07 03:20:59;;;;;;;66.40;31.57;;;;;;;;;;5065556;28;20347;-72
2024/03/07 03:23:25;;;;;;;68.57;31.10;;;;;;;;;;5072272;28;20255;-72
2024/03/07 03:25:50;;;;;;;68.83;32.23;;;;;;;;;;5070103;28;20224;-72
2024/03/07 03:28:16;;;;;;;66.00;32.87;;;;;;;;;;5058876;28;20185;-72
2024/03/07 03:30:42;;;;;;;70.40;32.93;;;;;;;;;;5058315;28;20631;-72
2024/03/07 03:33:08;;;;;;;65.43;31.83;;;;;;;;;;5064194;28;20188;-72
2024/03/07 03:35:34;;;;;;;67.07;31.90;;;;;;;;;;5071532;28;20339;-72
2024/03/07 03:38:00;;;;;;;67.20;32.07;;;;;;;;;;5062595;28;20649;-71
2024/03/07 03:40:25;;;;;;;63.67;31.23;;;;;;;;;;5065332;28;20196;-72
2024/03/07 03:42:51;;;;;;;64.47;31.17;;;;;;;;;;5067758;28;20707;-72
2024/03/07 03:45:17;;;;;;;68.53;31.27;;;;;;;;;;5066977;28;20590;-72
2024/03/07 03:47:43;;;;;;;72.33;32.13;;;;;;;;;;5065707;28;20181;-72
2024/03/07 03:50:11;;;;;;;69.90;30.63;;;;;;;;;;5067829;28;20671;-72
2024/03/07 03:52:37;;;;;;;67.17;30.83;;;;;;;;;;5062401;28;20177;-71
2024/03/07 03:55:05;;;;;;;68.93;32.23;;;;;;;;;;5059153;28;20185;-71
2024/03/07 03:57:31;;;;;;;62.93;30.50;;;;;;;;;;5066070;28;20185;-73
2024/03/07 03:59:57;;;;;;;66.40;30.93;;;;;;;;;;5055365;28;20193;-72
2024/03/07 04:02:23;;;;;;;62.53;30.80;;;;;;;;;;5070872;28;20193;-72
2024/03/07 04:04:49;;;;;;;62.23;30.80;;;;;;;;;;5071566;28;20204;-72
2024/03/07 04:07:15;;;;;;;66.33;31.30;;;;;;;;;;5068007;28;20194;-72
2024/03/07 04:09:42;;;;;;;65.77;30.50;;;;;;;;;;5059003;28;20190;-72
2024/03/07 04:12:10;;;;;;;62.27;30.27;;;;;;;;;;5066164;28;20173;-72
2024/03/07 04:14:42;;;;;;;65.33;30.63;;;;;;;;;;5070759;28;20231;-72
2024/03/07 04:17:09;;;;;;;61.23;29.40;;;;;;;;;;5070014;28;20655;-73
2024/03/07 04:19:35;;;;;;;62.37;29.87;;;;;;;;;;5070086;28;20201;-72
2024/03/07 04:22:03;;;;;;;68.83;30.93;;;;;;;;;;5066602;28;20687;-72
2024/03/07 04:24:29;;;;;;;63.77;29.47;;;;;;;;;;5050729;28;20709;-72
2024/03/07 04:26:55;;;;;;;62.60;28.97;;;;;;;;;;5064400;28;20267;-72
2024/03/07 04:29:20;;;;;;;63.40;28.63;;;;;;;;;;5080256;28;20389;-72
2024/03/07 04:31:46;;;;;;;58.40;28.27;;;;;;;;;;5071053;28;20766;-72
2024/03/07 04:34:11;;;;;;;58.10;28.27;;;;;;;;;;5075867;28;20254;-72
2024/03/07 04:36:36;;;;;;;59.67;28.20;;;;;;;;;;5059885;28;20181;-72
2024/03/07 04:39:04;;;;;;;61.27;29.20;;;;;;;;;;5066770;28;20226;-72
2024/03/07 04:41:29;;;;;;;60.17;27.77;;;;;;;;;;5069039;28;20180;-72
2024/03/07 04:43:55;;;;;;;55.00;27.47;;;;;;;;;;5062174;28;20266;-72
2024/03/07 04:46:20;;;;;;;57.87;29.20;;;;;;;;;;5066339;28;20558;-72
2024/03/07 04:48:45;;;;;;;57.80;28.20;;;;;;;;;;5064393;28;20193;-72
2024/03/07 04:51:11;;;;;;;56.47;27.13;;;;;;;;;;5068092;28;20192;-72
2024/03/07 04:53:41;;;;;;;56.03;27.07;;;;;;;;;;5065325;28;20180;-72
2024/03/07 04:56:09;;;;;;;56.67;26.63;;;;;;;;;;5061667;28;20184;-73
2024/03/07 04:58:35;;;;;;;54.60;27.17;;;;;;;;;;5067226;28;20837;-72
2024/03/07 05:01:02;;;;;;;56.30;26.37;;;;;;;;;;5059001;28;20216;-72
2024/03/07 05:03:27;;;;;;;59.53;26.17;;;;;;;;;;5064971;28;20578;-72
2024/03/07 05:05:53;;;;;;;54.27;26.50;;;;;;;;;;5069144;28;20425;-72
2024/03/07 05:08:18;;;;;;;57.73;25.23;;;;;;;;;;5069725;28;20185;-72
2024/03/07 05:10:44;;;;;;;56.40;25.80;;;;;;;;;;5066303;28;20187;-72
2024/03/07 05:13:09;;;;;;;53.03;25.73;;;;;;;;;;5064082;28;20644;-72
2024/03/07 05:15:34;;;;;;;53.30;25.27;;;;;;;;;;5069727;28;20684;-72
2024/03/07 05:18:00;;;;;;;51.20;24.43;;;;;;;;;;5071586;28;20640;-72
2024/03/07 05:20:28;;;;;;;52.40;24.70;;;;;;;;;;5068173;28;20280;-72
2024/03/07 05:22:53;;;;;;;47.93;23.87;;;;;;;;;;5051300;28;20209;-72
2024/03/07 05:25:20;;;;;;;46.23;24.30;;;;;;;;;;5054140;28;20250;-72
2024/03/07 05:27:46;;;;;;;44.97;23.13;;;;;;;;;;5061062;28;20185;-72
2024/03/07 05:30:13;;;;;;;49.20;24.77;;;;;;;;;;5075272;28;20192;-72
2024/03/07 05:32:39;;;;;;;50.43;23.27;;;;;;;;;;5057417;28;20176;-73
2024/03/07 05:35:06;;;;;;;43.30;22.77;;;;;;;;;;5084929;28;20243;-73
2024/03/07 05:37:31;;;;;;;45.50;23.07;;;;;;;;;;5065217;28;20188;-72
2024/03/07 05:39:57;;;;;;;46.30;23.13;;;;;;;;;;5077160;28;20272;-72
2024/03/07 05:42:24;;;;;;;44.77;22.73;;;;;;;;;;5068123;28;20268;-72
2024/03/07 05:44:50;;;;;;;49.83;23.47;;;;;;;;;;5057333;28;20243;-72
2024/03/07 05:47:16;;;;;;;46.50;23.40;;;;;;;;;;5068875;28;20185;-72
2024/03/07 05:49:43;;;;;;;47.63;22.57;;;;;;;;;;5073885;28;20288;-73
2024/03/07 05:52:08;;;;;;;50.87;23.17;;;;;;;;;;5066330;28;20194;-73
2024/03/07 05:54:34;;;;;;;45.30;21.77;;;;;;;;;;5064893;28;20283;-72
2024/03/07 05:57:00;;;;;;;44.73;21.87;;;;;;;;;;5066146;28;20192;-72
2024/03/07 05:59:28;;;;;;;47.10;22.40;;;;;;;;;;5066346;28;20189;-72
2024/03/07 06:01:54;;;;;;;46.90;22.37;;;;;;;;;;5059457;28;20286;-72
2024/03/07 06:04:20;;;;;;;43.33;20.90;;;;;;;;;;5084841;28;20631;-72
2024/03/07 06:06:46;;;;;;;45.57;21.77;;;;;;;;;;5065208;28;20188;-73
2024/03/07 06:09:13;;;;;;;46.27;22.50;;;;;;;;;;5066384;28;20296;-73
2024/03/07 06:11:43;;;;;;;46.50;22.40;;;;;;;;;;5059017;28;20181;-72
2024/03/07 06:14:09;;;;;;;45.80;22.07;;;;;;;;;;5071251;28;20686;-72
2024/03/07 06:16:38;;;;;;;49.13;23.20;;;;;;;;;;5073909;28;20193;-72
2024/03/07 06:19:04;;;;;;;45.97;22.43;;;;;;;;;;5079614;28;20211;-72
2024/03/07 06:21:33;;;;;;;47.73;21.60;;;;;;;;;;5073607;28;20212;-72
2024/03/07 06:23:59;;;;;;;48.63;23.23;;;;;;;;;;5068321;28;20815;-72
2024/03/07 06:26:46;;;;;;;48.83;22.20;;;;;;;;;;5069519;28;20228;-73
2024/03/07 06:29:18;;;;;;;44.73;21.47;;;;;;;;;;5066881;28;20305;-73
2024/03/07 06:31:47;;;;;;;48.90;21.73;;;;;;;;;;5065367;28;20185;-73
2024/03/07 06:34:15;;;;;;;47.17;22.53;;;;;;;;;;5064930;28;20608;-73
2024/03/07 06:36:41;;;;;;;50.50;22.97;;;;;;;;;;5060254;28;20276;-74
2024/03/07 06:39:10;;;;;;;46.73;21.40;;;;;;;;;;5064475;28;20186;-73
2024/03/07 06:41:35;;;;;;;48.90;22.53;;;;;;;;;;5067116;28;20193;-73
2024/03/07 06:44:02;;;;;;;45.00;22.13;;;;;;;;;;5062701;28;20219;-73
2024/03/07 06:46:28;;;;;;;45.73;22.63;;;;;;;;;;5069720;28;20327;-73
2024/03/07 06:48:54;;;;;;;45.17;22.40;;;;;;;;;;5071760;28;20271;-72
2024/03/07 06:51:19;;;;;;;46.73;21.87;;;;;;;;;;5072248;28;20311;-73
2024/03/07 06:53:46;;;;;;;47.97;21.93;;;;;;;;;;5067900;28;20658;-72
2024/03/07 06:56:12;;;;;;;49.93;22.63;;;;;;;;;;5070734;28;20249;-72
2024/03/07 06:58:38;;;;;;;49.03;22.70;;;;;;;;;;5076383;28;20191;-72
2024/03/07 07:01:07;;;;;;;47.53;23.40;;;;;;;;;;5062827;28;20195;-72
2024/03/07 07:03:32;;;;;;;46.93;23.03;;;;;;;;;;5067766;28;20296;-72
2024/03/07 07:05:58;;;;;;;46.17;21.43;;;;;;;;;;5060900;28;20220;-72
2024/03/07 07:08:24;;;;;;;46.23;21.93;;;;;;;;;;5061602;28;20205;-72
2024/03/07 07:10:49;;;;;;;45.63;22.80;;;;;;;;;;5069968;28;20191;-72
2024/03/07 07:13:15;;;;;;;44.30;22.97;;;;;;;;;;5071656;28;20199;-72
2024/03/07 07:15:40;;;;;;;41.40;21.00;;;;;;;;;;5071611;28;20193;-73
2024/03/07 07:18:07;;;;;;;44.97;22.03;;;;;;;;;;5064759;28;20180;-73
2024/03/07 07:20:34;;;;;;;42.60;22.37;;;;;;;;;;5070998;28;20353;-73
2024/03/07 07:23:02;;;;;;;39.07;20.23;;;;;;;;;;5067674;28;20237;-73
2024/03/07 07:25:27;;;;;;;43.40;21.20;;;;;;;;;;5058304;28;20192;-73
2024/03/07 07:27:53;;;;;;;42.77;22.80;;;;;;;;;;5065704;28;20219;-73
2024/03/07 07:30:23;;;;;;;44.77;22.73;;;;;;;;;;5069752;28;20224;-72
2024/03/07 07:32:51;;;;;;;42.83;21.47;;;;;;;;;;5066765;28;20199;-72
2024/03/07 07:35:16;;;;;;;43.17;22.50;;;;;;;;;;5069195;28;20738;-73
2024/03/07 07:37:43;;;;;;;41.60;20.53;;;;;;;;;;5069261;28;20177;-73
2024/03/07 07:40:14;;;;;;;41.63;20.30;;;;;;;;;;5070719;28;20193;-73
2024/03/07 07:42:44;;;;;;;38.67;20.43;;;;;;;;;;5068698;28;20691;-72
2024/03/07 07:45:13;;;;;;;41.23;20.23;;;;;;;;;;5061519;28;20189;-73
2024/03/07 07:47:42;;;;;;;45.33;21.53;;;;;;;;;;5064784;28;20192;-72
2024/03/07 07:50:17;;;;;;;37.80;19.80;;;;;;;;;;5070088;28;20723;-72
2024/03/07 07:52:53;;;;;;;38.37;20.63;;;;;;;;;;5063186;28;20385;-72
2024/03/07 07:55:21;;;;;;;38.20;19.87;;;;;;;;;;5070314;28;20199;-72
2024/03/07 07:57:48;;;;;;;39.63;19.50;;;;;;;;;;5064094;28;20189;-72
2024/03/07 08:00:25;;;;;;;37.23;19.83;;;;;;;;;;5061311;28;20593;-72
2024/03/07 08:02:54;;;;;;;35.10;20.13;;;;;;;;;;5068777;28;20224;-72
2024/03/07 08:05:24;;;;;;;40.73;19.43;;;;;;;;;;5069582;28;20199;-72
2024/03/07 08:07:51;;;;;;;34.87;19.27;;;;;;;;;;5060193;28;20555;-72
2024/03/07 08:10:22;;;;;;;39.97;21.43;;;;;;;;;;5060589;28;20239;-72
2024/03/07 08:12:48;;;;;;;40.33;19.80;;;;;;;;;;5070266;28;20200;-73
2024/03/07 08:15:15;;;;;;;37.67;19.80;;;;;;;;;;5069210;28;20641;-72
2024/03/07 08:17:44;;;;;;;39.30;20.17;;;;;;;;;;5078153;28;20183;-72
2024/03/07 08:20:14;;;;;;;38.70;20.47;;;;;;;;;;5052076;28;20266;-72
2024/03/07 08:22:42;;;;;;;32.77;19.50;;;;;;;;;;5049132;28;20232;-72
2024/03/07 08:25:12;;;;;;;35.47;20.30;;;;;;;;;;5063117;28;20192;-72
2024/03/07 08:27:39;;;;;;;30.77;18.97;;;;;;;;;;5069587;28;20755;-72
2024/03/07 08:30:12;;;;;;;35.93;19.00;;;;;;;;;;5066708;28;20188;-72
2024/03/07 08:32:39;;;;;;;30.43;18.10;;;;;;;;;;5067396;28;20296;-72
2024/03/07 08:35:09;;;;;;;34.23;18.67;;;;;;;;;;5065172;28;20303;-72
2024/03/07 08:37:36;;;;;;;35.87;19.37;;;;;;;;;;5063831;28;20197;-72
2024/03/07 08:40:04;;;;;;;32.37;18.60;;;;;;;;;;5069071;28;20189;-72
2024/03/07 08:42:32;;;;;;;32.97;19.53;;;;;;;;;;5077338;28;20207;-72
2024/03/07 08:44:58;;;;;;;35.83;18.77;;;;;;;;;;5072663;28;20202;-73
2024/03/07 08:47:23;;;;;;;30.93;19.23;;;;;;;;;;5074237;28;20188;-72
2024/03/07 08:49:49;;;;;;;32.03;18.30;;;;;;;;;;5062592;28;20281;-72
2024/03/07 08:52:14;;;;;;;32.20;18.70;;;;;;;;;;5086745;28;20680;-73
2024/03/07 08:54:39;;;;;;;28.20;17.83;;;;;;;;;;5079373;28;20485;-73
2024/03/07 08:57:06;;;;;;;31.57;18.47;;;;;;;;;;5076891;28;20176;-73
2024/03/07 08:59:33;;;;;;;31.17;18.27;;;;;;;;;;5073290;28;20195;-73
2024/03/07 09:02:01;;;;;;;28.73;17.77;;;;;;;;;;5051934;28;20273;-73
2024/03/07 09:04:28;;;;;;;28.93;18.13;;;;;;;;;;5080090;28;20280;-73
2024/03/07 09:06:54;;;;;;;30.53;17.97;;;;;;;;;;5077565;28;20534;-73
2024/03/07 09:09:20;;;;;;;29.00;18.20;;;;;;;;;;5065502;28;20180;-73
2024/03/07 09:11:45;;;;;;;29.50;18.30;;;;;;;;;;5061395;28;20192;-73
2024/03/07 09:14:11;;;;;;;31.93;18.13;;;;;;;;;;5079944;28;20184;-72
2024/03/07 09:16:36;;;;;;;28.23;18.73;;;;;;;;;;5055160;28;20203;-72
2024/03/07 09:19:02;;;;;;;28.13;17.77;;;;;;;;;;5072721;28;20208;-73
2024/03/07 09:21:29;;;;;;;31.53;18.03;;;;;;;;;;5051481;28;20258;-72
2024/03/07 09:23:55;;;;;;;28.73;17.83;;;;;;;;;;5049845;28;20560;-72
2024/03/07 09:26:20;;;;;;;27.27;18.33;;;;;;;;;;5056322;28;20200;-72
2024/03/07 09:28:46;;;;;;;31.13;18.53;;;;;;;;;;5062020;28;20189;-72
2024/03/07 09:31:14;;;;;;;31.40;18.30;;;;;;;;;;5062804;28;20295;-73
2024/03/07 09:33:40;;;;;;;34.63;19.20;;;;;;;;;;5057002;28;20180;-73
2024/03/07 09:36:06;;;;;;;34.13;20.87;;;;;;;;;;5047922;28;20387;-73
2024/03/07 09:38:32;;;;;;;31.37;18.97;;;;;;;;;;5068455;28;20184;-73
2024/03/07 09:40:58;;;;;;;30.67;19.47;;;;;;;;;;5068545;28;20504;-73
2024/03/07 09:43:29;;;;;;;34.03;19.77;;;;;;;;;;5066202;28;20216;-72
2024/03/07 09:45:55;;;;;;;35.03;20.40;;;;;;;;;;5053120;28;20298;-73
2024/03/07 09:48:25;;;;;;;33.47;19.87;;;;;;;;;;5063437;28;20640;-73
2024/03/07 09:50:54;;;;;;;33.37;19.00;;;;;;;;;;5069653;28;20189;-73
2024/03/07 09:53:20;;;;;;;31.53;19.43;;;;;;;;;;5055765;28;20262;-73
2024/03/07 09:55:46;;;;;;;35.47;19.43;;;;;;;;;;5068458;28;20672;-72
2024/03/07 09:58:14;;;;;;;30.67;19.07;;;;;;;;;;5069484;28;20367;-72
2024/03/07 10:00:40;;;;;;;34.60;19.43;;;;;;;;;;5056437;28;20181;-72
2024/03/07 10:03:08;;;;;;;31.55;19.83;;;;;;;;;;5069370;28;20239;-72
2024/03/07 10:05:34;;;;;;;30.80;19.03;;;;;;;;;;5067579;28;20697;-72
2024/03/07 10:08:00;;;;;;;31.17;18.87;;;;;;;;;;5056867;28;20272;-73
2024/03/07 10:10:26;;;;;;;33.70;19.17;;;;;;;;;;5065638;28;20276;-73
2024/03/07 10:12:53;;;;;;;30.83;19.40;;;;;;;;;;5067804;28;20285;-73
2024/03/07 10:15:22;;;;;;;31.45;19.60;;;;;;;;;;5068897;28;20195;-73
2024/03/07 10:17:48;;;;;;;30.00;19.20;;;;;;;;;;5069095;28;20216;-72
2024/03/07 10:20:20;;;;;;;29.42;18.77;;;;;;;;;;5069827;28;20208;-73
2024/03/07 10:22:46;;;;;;;33.17;19.25;;;;;;;;;;5061850;28;20201;-73
2024/03/07 10:25:11;;;;;;;32.08;18.88;;;;;;;;;;5067389;28;20683;-73
2024/03/07 10:27:38;;;;;;;29.25;18.42;;;;;;;;;;5063942;28;20185;-72
2024/03/07 10:30:07;;;;;;;32.63;19.55;;;;;;;;;;5068324;28;20192;-73
2024/03/07 10:32:33;;;;;;;29.05;18.30;;;;;;;;;;5068287;28;20177;-73
2024/03/07 10:34:59;;;;;;;30.25;18.65;;;;;;;;;;5069916;28;20254;-73
2024/03/07 10:37:25;;;;;;;32.72;19.67;;;;;;;;;;5069669;28;20188;-72
2024/03/07 10:39:51;;;;;;;30.15;18.30;;;;;;;;;;5069678;28;20201;-73
2024/03/07 10:42:18;;;;;;;31.73;20.45;;;;;;;;;;5066078;28;20212;-72
2024/03/07 10:44:49;;;;;;;32.10;19.73;;;;;;;;;;5069752;28;20267;-72
2024/03/07 10:47:19;;;;;;;29.30;18.33;;;;;;;;;;5069563;28;20197;-73
2024/03/07 10:50:14;;;;;;;28.20;17.67;;;;;;;;;;5069002;28;20218;-73
2024/03/07 10:53:23;;;;;;;28.45;18.30;;;;;;;;;;5068256;28;20220;-73
2024/03/07 10:55:55;;;;;;;27.63;18.58;;;;;;;;;;5042352;28;20201;-72
2024/03/07 10:58:45;;;;;;;27.73;18.33;;;;;;;;;;5071082;28;20180;-73
2024/03/07 11:01:12;;;;;;;26.50;16.95;;;;;;;;;;5073422;28;20189;-73
2024/03/07 11:03:39;;;;;;;31.42;19.35;;;;;;;;;;5073836;28;20243;-72
2024/03/07 11:06:11;;;;;;;27.65;18.30;;;;;;;;;;5076062;28;20184;-72
2024/03/07 11:08:37;;;;;;;29.65;19.35;;;;;;;;;;5051824;28;20208;-72
2024/03/07 11:11:06;;;;;;;26.58;17.02;;;;;;;;;;5055902;28;20197;-74
2024/03/07 11:13:33;;;;;;;29.33;18.08;;;;;;;;;;5053146;28;20275;-73
2024/03/07 11:16:00;;;;;;;26.10;17.77;;;;;;;;;;5062618;28;20291;-72
2024/03/07 11:18:26;;;;;;;25.73;17.35;;;;;;;;;;5071477;28;20277;-72
2024/03/07 11:20:52;;;;;;;26.63;17.45;;;;;;;;;;5062148;28;20189;-72
2024/03/07 11:23:33;;;;;;;25.85;17.17;;;;;;;;;;5065217;28;20220;-72
2024/03/07 11:26:09;;;;;;;27.30;18.00;;;;;;;;;;5065265;28;20189;-72
2024/03/07 11:28:40;;;;;;;29.30;18.85;;;;;;;;;;5067629;28;20238;-72
2024/03/07 11:31:14;;;;;;;24.52;16.30;;;;;;;;;;5068388;28;20188;-72
2024/03/07 11:33:41;;;;;;;22.67;16.40;;;;;;;;;;5071981;28;20180;-73
2024/03/07 11:36:14;;;;;;;24.48;16.88;;;;;;;;;;5067157;28;20273;-72
2024/03/07 11:38:48;;;;;;;22.33;15.43;;;;;;;;;;5070420;28;20670;-72
2024/03/07 11:41:14;;;;;;;23.02;16.00;;;;;;;;;;5069235;28;20580;-72
2024/03/07 11:43:42;;;;;;;25.33;15.75;;;;;;;;;;5070475;28;20214;-72
2024/03/07 11:46:11;;;;;;;22.73;15.82;;;;;;;;;;5061399;28;20327;-73
2024/03/07 11:48:41;;;;;;;23.48;15.82;;;;;;;;;;5068339;28;20189;-74
2024/03/07 11:51:10;;;;;;;22.75;15.10;;;;;;;;;;5068174;28;20253;-73
2024/03/07 11:53:38;;;;;;;24.48;16.20;;;;;;;;;;5071596;28;20684;-73
2024/03/07 11:56:09;;;;;;;25.15;16.33;;;;;;;;;;5071132;28;20185;-73
2024/03/07 11:58:40;;;;;;;22.55;15.88;;;;;;;;;;5071978;28;20192;-73
2024/03/07 12:01:10;;;;;;;22.85;15.30;;;;;;;;;;5066061;28;20188;-73
2024/03/07 12:03:37;;;;;;;23.20;16.52;;;;;;;;;;5080233;28;20788;-73
2024/03/07 12:06:03;;;;;;;25.50;16.08;;;;;;;;;;5070214;28;20674;-73
2024/03/07 12:08:29;;;;;;;23.17;16.45;;;;;;;;;;5062635;28;20189;-72
2024/03/07 12:10:56;;;;;;;23.13;16.08;;;;;;;;;;5069388;28;20567;-73
2024/03/07 12:13:22;;;;;;;23.27;15.90;;;;;;;;;;5071291;28;20200;-73
2024/03/07 12:15:51;;;;;;;25.90;16.98;;;;;;;;;;5070174;28;20776;-72
2024/03/07 12:18:17;;;;;;;23.00;15.90;;;;;;;;;;5070489;28;20185;-72
2024/03/07 12:20:50;;;;;;;24.02;15.25;;;;;;;;;;5065208;28;20273;-72
2024/03/07 12:23:19;;;;;;;24.10;15.70;;;;;;;;;;5070478;28;20231;-72
2024/03/07 12:25:45;;;;;;;23.90;16.00;;;;;;;;;;5066432;28;20195;-72
2024/03/07 12:28:17;;;;;;;21.10;15.25;;;;;;;;;;5071914;28;20185;-72
2024/03/07 12:30:46;;;;;;;24.70;15.02;;;;;;;;;;5068674;28;20656;-72
2024/03/07 12:33:13;;;;;;;26.25;16.13;;;;;;;;;;5069027;28;20728;-73
2024/03/07 12:35:41;;;;;;;23.35;16.15;;;;;;;;;;5067063;28;20297;-71
2024/03/07 12:38:10;;;;;;;23.20;15.55;;;;;;;;;;5065737;28;20189;-72
2024/03/07 12:40:37;;;;;;;24.10;15.15;;;;;;;;;;5070166;28;20279;-72
2024/03/07 12:43:12;;;;;;;24.52;15.95;;;;;;;;;;5070459;28;20639;-72
2024/03/07 12:45:42;;;;;;;28.08;16.85;;;;;;;;;;5057988;28;20188;-72
2024/03/07 12:48:07;;;;;;;26.35;16.10;;;;;;;;;;5067029;28;20303;-72
2024/03/07 12:50:34;;;;;;;25.10;16.25;;;;;;;;;;5086435;28;20284;-72
2024/03/07 12:53:04;;;;;;;27.55;15.95;;;;;;;;;;5070804;28;20184;-72
2024/03/07 12:55:30;;;;;;;26.85;16.98;;;;;;;;;;5070382;28;20245;-71
2024/03/07 12:57:56;;;;;;;27.42;15.68;;;;;;;;;;5068403;28;20271;-70
2024/03/07 13:00:22;;;;;;;27.77;15.70;;;;;;;;;;5070491;28;20263;-71
2024/03/07 13:02:48;;;;;;;26.13;15.57;;;;;;;;;;5060264;28;20326;-71
2024/03/07 13:05:22;;;;;;;25.55;15.30;;;;;;;;;;5060789;28;20556;-72
2024/03/07 13:07:48;;;;;;;26.67;15.93;;;;;;;;;;5060592;28;20177;-72
2024/03/07 13:10:18;;;;;;;27.55;16.25;;;;;;;;;;5063316;28;20719;-72
2024/03/07 13:12:45;;;;;;;27.40;15.45;;;;;;;;;;5062627;28;20602;-72
2024/03/07 13:15:14;;;;;;;29.10;15.73;;;;;;;;;;5056034;28;20185;-71
2024/03/07 13:17:39;;;;;;;26.77;15.55;;;;;;;;;;5061816;28;20563;-71
2024/03/07 13:20:11;;;;;;;27.55;16.05;;;;;;;;;;5055772;28;20203;-71
2024/03/07 13:22:43;;;;;;;27.30;16.42;;;;;;;;;;5063050;28;20212;-71
2024/03/07 13:25:19;;;;;;;29.50;16.80;;;;;;;;;;5063604;28;20621;-72
2024/03/07 13:27:55;;;;;;;27.05;16.48;;;;;;;;;;5065638;28;20180;-72
2024/03/07 13:30:27;;;;;;;29.63;17.23;;;;;;;;;;5063153;28;20280;-72
2024/03/07 13:32:53;;;;;;;31.20;18.17;;;;;;;;;;5065637;28;20195;-71
2024/03/07 13:35:20;;;;;;;31.00;17.63;;;;;;;;;;5062392;28;20577;-72
2024/03/07 13:37:47;;;;;;;34.63;17.25;;;;;;;;;;5065167;28;20275;-72
2024/03/07 13:40:24;;;;;;;31.25;16.85;;;;;;;;;;5063767;28;20197;-71
2024/03/07 13:42:58;;;;;;;27.90;15.60;;;;;;;;;;5063630;28;20765;-71
2024/03/07 13:45:26;;;;;;;28.92;16.58;;;;;;;;;;5058010;28;20185;-72
2024/03/07 13:47:54;;;;;;;28.05;17.20;;;;;;;;;;5057285;28;20185;-72
2024/03/07 13:50:23;;;;;;;28.33;16.98;;;;;;;;;;5056077;28;20251;-72
2024/03/07 13:55:46;;;;;;;31.38;17.15;;;;;;;;;;5084484;28;20181;-72
2024/03/07 13:58:28;;;;;;;30.27;17.55;;;;;;;;;;5063062;28;20200;-71
2024/03/07 14:01:22;;;;;;;30.17;17.25;;;;;;;;;;5053235;28;20212;-70
2024/03/07 14:04:25;;;;;;;29.50;16.20;;;;;;;;;;5059635;28;20325;-71
2024/03/07 14:07:14;;;;;;;27.63;15.32;;;;;;;;;;5061399;28;20257;-72
2024/03/07 14:09:58;;;;;;;24.98;15.57;;;;;;;;;;5052629;28;20189;-71
2024/03/07 14:12:58;;;;;;;31.10;16.33;;;;;;;;;;5064030;28;20237;-71
2024/03/07 14:15:56;;;;;;;27.25;15.90;;;;;;;;;;5026478;28;20209;-72
2024/03/07 14:18:40;;;;;;;25.20;15.23;;;;;;;;;;5054933;28;20234;-72
2024/03/07 14:21:48;;;;;;;28.30;15.13;;;;;;;;;;5055308;28;20199;-72
2024/03/07 14:24:48;;;;;;;26.35;15.50;;;;;;;;;;5066455;28;20231;-72